• Join FlightAware (Why Join?)
  • Login
  • US Flag 
08:01PM EDT


 

Airport Tracker/Info


-or-


 

Live Flight TrackerFlight Track Log ✈ DKT111 ✈ 28-Jun-2013 ✈ KABR - KFSD

Flight Track Log - Related Links

Times and Time Zones

All times are in EDT time to prevent confusion due to time zone crossing. See the DKT111 flight status page for this flight to view local times or setup timezone preferences in your user account.

Time Position Orientation Groundspeed Altitude Reporting Facility
EDT Latitude Longitude Course Direction KTS MPH feet Rate Location/Type
09:49AM 45.3436 -98.3903 148° Southeast 226 260 7,300  Level Minneapolis Center
09:50AM 45.2783 -98.3278 146° Southeast 231 266 9,500 1,800 Climbing Minneapolis Center
09:51AM 45.2228 -98.2714 144° Southeast 241 277 11,000 1,440 Climbing Minneapolis Center
09:52AM 45.1653 -98.2108 143° Southeast 252 290 12,500 1,140 Climbing Minneapolis Center
09:53AM 45.0807 -98.0799 147° Southeast  Level Estimated
09:53AM 45.1047 -98.1556 147° Southeast 257 296 13,700  Level Minneapolis Center
09:54AM 45.0219 -98.0797 147° Southeast 266 306 14,900 600 Climbing Minneapolis Center
09:55AM 44.9550 -98.0131 145° Southeast 285 328 15,000 60 Climbing Minneapolis Center
09:56AM 44.8836 -97.9442 146° Southeast 303 349 15,100  Climbing Minneapolis Center
09:57AM 44.8117 -97.8739 145° Southeast 312 359 15,000 -120 Descending Minneapolis Center
09:58AM 44.7408 -97.7953 142° Southeast 321 369 14,900  Descending Minneapolis Center
09:59AM 44.6572 -97.7094 144° Southeast 315 362 15,000  Climbing Minneapolis Center
10:00AM 44.5853 -97.6408 146° Southeast 313 360 15,000  Level Minneapolis Center
10:01AM 44.5097 -97.5750 148° Southeast 316 364 15,000  Level Minneapolis Center
10:02AM 44.4339 -97.5136 150° Southeast 316 364 15,000 -180 Level Minneapolis Center
10:03AM 44.3575 -97.4533 151° Southeast 316 364 14,700 -540 Descending Minneapolis Center
10:04AM 44.2753 -97.3919 152° Southeast 327 376 14,000 -780 Descending Minneapolis Center
10:05AM 44.1944 -97.3264 150° Southeast 335 386 13,200 -1,020 Descending Minneapolis Center
10:06AM 44.1128 -97.2625 151° Southeast 337 388 12,000 -1,260 Descending Minneapolis Center
10:07AM 44.0289 -97.2017 152° Southeast 340 391 10,700 -1,200 Descending Minneapolis Center
10:08AM 43.9283 -97.1250 151° Southeast 345 397 9,600 -1,140 Descending Minneapolis Center
10:10AM 43.8497 -97.0592 149° Southeast 340 391 8,400 -1,380 Descending Minneapolis Center
10:11AM 43.7753 -96.9931 147° Southeast 333 383 6,800 -1,560 Descending Minneapolis Center
10:12AM 43.6900 -96.9183 148° Southeast 319 367 5,300 -1,380 Descending Minneapolis Center
10:13AM 43.6267 -96.8589 146° Southeast 302 348 4,000 -960 Descending Minneapolis Center
10:14AM 43.5731 -96.8039 143° Southeast 275 316 3,400 -720 Descending Minneapolis Center
10:15AM 43.5464 -96.7514 125° Southeast 230 265 2,600 -720 Descending Minneapolis Center
10:16AM 43.5781 -96.7128 41° Northeast 188 216 2,000 -600 Descending Minneapolis Center
10:18AM 43.5667 -96.7333 148° Southeast  Level FlightAware Approximate
10:25AM 43.5820 -96.7419 148° Southeast  Level Estimated